sensor_id;sensor_type;location;lat;lon;timestamp;pressure;altitude;pressure_sealevel;temperature;humidity
73151;BME280;61354;50.758;6.106;2023-05-12T00:02:18;99093.53;;;12.15;100.00
73151;BME280;61354;50.758;6.106;2023-05-12T00:04:43;99091.31;;;12.25;100.00
73151;BME280;61354;50.758;6.106;2023-05-12T00:07:09;99093.97;;;12.17;100.00
73151;BME280;61354;50.758;6.106;2023-05-12T00:09:34;99093.56;;;11.96;100.00
73151;BME280;61354;50.758;6.106;2023-05-12T00:12:01;99087.28;;;11.99;100.00
73151;BME280;61354;50.758;6.106;2023-05-12T00:14:26;99091.88;;;11.72;100.00
73151;BME280;61354;50.758;6.106;2023-05-12T00:16:52;99089.97;;;11.76;100.00
73151;BME280;61354;50.758;6.106;2023-05-12T00:19:18;99091.16;;;11.75;100.00
73151;BME280;61354;50.758;6.106;2023-05-12T00:21:44;99091.63;;;11.81;100.00
73151;BME280;61354;50.758;6.106;2023-05-12T00:24:10;99094.59;;;11.88;100.00
73151;BME280;61354;50.758;6.106;2023-05-12T00:26:35;99085.28;;;11.80;100.00
73151;BME280;61354;50.758;6.106;2023-05-12T00:29:01;99085.44;;;11.87;100.00
73151;BME280;61354;50.758;6.106;2023-05-12T00:31:28;99078.78;;;11.92;100.00
73151;BME280;61354;50.758;6.106;2023-05-12T00:33:54;99083.47;;;11.88;100.00
73151;BME280;61354;50.758;6.106;2023-05-12T00:36:20;99092.63;;;11.88;100.00
73151;BME280;61354;50.758;6.106;2023-05-12T00:38:45;99089.16;;;11.76;100.00
73151;BME280;61354;50.758;6.106;2023-05-12T00:41:11;99086.38;;;11.76;100.00
73151;BME280;61354;50.758;6.106;2023-05-12T00:43:36;99084.34;;;11.92;100.00
73151;BME280;61354;50.758;6.106;2023-05-12T00:46:04;99087.63;;;11.98;100.00
73151;BME280;61354;50.758;6.106;2023-05-12T00:48:30;99086.25;;;11.88;100.00
73151;BME280;61354;50.758;6.106;2023-05-12T00:50:57;99081.00;;;11.83;100.00
73151;BME280;61354;50.758;6.106;2023-05-12T00:53:23;99078.41;;;11.74;100.00
73151;BME280;61354;50.758;6.106;2023-05-12T00:55:48;99079.16;;;11.90;100.00
73151;BME280;61354;50.758;6.106;2023-05-12T00:58:14;99075.69;;;11.97;100.00
73151;BME280;61354;50.758;6.106;2023-05-12T01:00:40;99075.03;;;12.04;100.00
73151;BME280;61354;50.758;6.106;2023-05-12T01:03:05;99066.31;;;11.86;100.00
73151;BME280;61354;50.758;6.106;2023-05-12T01:05:38;99071.16;;;11.89;100.00
73151;BME280;61354;50.758;6.106;2023-05-12T01:08:07;99072.34;;;11.88;100.00
73151;BME280;61354;50.758;6.106;2023-05-12T01:10:33;99062.22;;;11.99;100.00
73151;BME280;61354;50.758;6.106;2023-05-12T01:12:59;99064.19;;;11.79;100.00
73151;BME280;61354;50.758;6.106;2023-05-12T01:15:24;99060.97;;;11.97;100.00
73151;BME280;61354;50.758;6.106;2023-05-12T01:17:57;99054.78;;;11.84;100.00
73151;BME280;61354;50.758;6.106;2023-05-12T01:20:26;99053.28;;;11.90;100.00
73151;BME280;61354;50.758;6.106;2023-05-12T01:22:53;99053.16;;;11.83;100.00
73151;BME280;61354;50.758;6.106;2023-05-12T01:25:22;99052.34;;;11.82;100.00
73151;BME280;61354;50.758;6.106;2023-05-12T01:27:48;99054.41;;;11.85;100.00
73151;BME280;61354;50.758;6.106;2023-05-12T01:30:16;99048.03;;;11.85;100.00
73151;BME280;61354;50.758;6.106;2023-05-12T01:32:42;99049.50;;;11.79;100.00
73151;BME280;61354;50.758;6.106;2023-05-12T01:35:08;99043.78;;;11.52;100.00
73151;BME280;61354;50.758;6.106;2023-05-12T01:37:34;99045.59;;;11.64;100.00
73151;BME280;61354;50.758;6.106;2023-05-12T01:40:00;99037.34;;;11.67;100.00
73151;BME280;61354;50.758;6.106;2023-05-12T01:42:26;99039.63;;;11.62;100.00
73151;BME280;61354;50.758;6.106;2023-05-12T01:44:51;99038.72;;;11.77;100.00
73151;BME280;61354;50.758;6.106;2023-05-12T01:47:17;99038.06;;;11.64;100.00
73151;BME280;61354;50.758;6.106;2023-05-12T01:49:43;99037.78;;;11.69;100.00
73151;BME280;61354;50.758;6.106;2023-05-12T01:52:09;99034.56;;;11.48;100.00
73151;BME280;61354;50.758;6.106;2023-05-12T01:54:35;99033.84;;;11.51;100.00
73151;BME280;61354;50.758;6.106;2023-05-12T01:57:01;99033.69;;;11.63;100.00
73151;BME280;61354;50.758;6.106;2023-05-12T01:59:26;99039.25;;;11.63;100.00
73151;BME280;61354;50.758;6.106;2023-05-12T02:01:52;99035.22;;;11.61;100.00
73151;BME280;61354;50.758;6.106;2023-05-12T02:04:17;99035.91;;;11.54;100.00
73151;BME280;61354;50.758;6.106;2023-05-12T02:06:43;99029.13;;;11.75;100.00
73151;BME280;61354;50.758;6.106;2023-05-12T02:09:08;99031.16;;;11.78;100.00
73151;BME280;61354;50.758;6.106;2023-05-12T02:11:34;99029.25;;;11.82;100.00
73151;BME280;61354;50.758;6.106;2023-05-12T02:14:00;99028.25;;;11.90;100.00
73151;BME280;61354;50.758;6.106;2023-05-12T02:16:26;99025.19;;;11.76;100.00
73151;BME280;61354;50.758;6.106;2023-05-12T02:18:52;99016.53;;;11.81;100.00
73151;BME280;61354;50.758;6.106;2023-05-12T02:21:17;99021.28;;;11.80;100.00
73151;BME280;61354;50.758;6.106;2023-05-12T02:23:43;99022.25;;;11.88;100.00
73151;BME280;61354;50.758;6.106;2023-05-12T02:26:08;99016.69;;;11.88;100.00
73151;BME280;61354;50.758;6.106;2023-05-12T02:28:34;99018.69;;;11.87;100.00
73151;BME280;61354;50.758;6.106;2023-05-12T02:31:00;99015.66;;;11.96;100.00
73151;BME280;61354;50.758;6.106;2023-05-12T02:33:26;99008.91;;;11.97;100.00
73151;BME280;61354;50.758;6.106;2023-05-12T02:35:51;99016.31;;;11.89;100.00
73151;BME280;61354;50.758;6.106;2023-05-12T02:38:17;99017.69;;;11.99;100.00
73151;BME280;61354;50.758;6.106;2023-05-12T02:40:43;99007.22;;;11.92;100.00
73151;BME280;61354;50.758;6.106;2023-05-12T02:43:08;99006.50;;;11.96;100.00
73151;BME280;61354;50.758;6.106;2023-05-12T02:45:34;99002.47;;;11.93;100.00
73151;BME280;61354;50.758;6.106;2023-05-12T02:47:59;99001.25;;;11.90;100.00
73151;BME280;61354;50.758;6.106;2023-05-12T02:50:25;99004.06;;;11.94;100.00
73151;BME280;61354;50.758;6.106;2023-05-12T02:52:51;98995.72;;;11.94;100.00
73151;BME280;61354;50.758;6.106;2023-05-12T02:55:17;98996.09;;;11.92;100.00
73151;BME280;61354;50.758;6.106;2023-05-12T02:57:43;98993.63;;;11.87;100.00
73151;BME280;61354;50.758;6.106;2023-05-12T03:00:09;98997.34;;;11.76;100.00
73151;BME280;61354;50.758;6.106;2023-05-12T03:02:37;99000.31;;;11.83;100.00
73151;BME280;61354;50.758;6.106;2023-05-12T03:05:04;98996.91;;;11.93;100.00
73151;BME280;61354;50.758;6.106;2023-05-12T03:07:29;98980.22;;;11.93;100.00
73151;BME280;61354;50.758;6.106;2023-05-12T03:09:56;98980.94;;;11.90;100.00
73151;BME280;61354;50.758;6.106;2023-05-12T03:12:22;98983.94;;;11.81;100.00
73151;BME280;61354;50.758;6.106;2023-05-12T03:14:48;98980.94;;;11.90;100.00
73151;BME280;61354;50.758;6.106;2023-05-12T03:17:13;98991.78;;;11.76;100.00
73151;BME280;61354;50.758;6.106;2023-05-12T03:19:39;98987.53;;;11.82;100.00
73151;BME280;61354;50.758;6.106;2023-05-12T03:22:04;98976.78;;;11.80;100.00
73151;BME280;61354;50.758;6.106;2023-05-12T03:24:33;98970.41;;;11.80;100.00
73151;BME280;61354;50.758;6.106;2023-05-12T03:26:59;98964.16;;;11.83;100.00
73151;BME280;61354;50.758;6.106;2023-05-12T03:29:24;98964.41;;;11.78;100.00
73151;BME280;61354;50.758;6.106;2023-05-12T03:31:51;98955.41;;;11.84;100.00
73151;BME280;61354;50.758;6.106;2023-05-12T03:34:17;98953.09;;;11.86;100.00
73151;BME280;61354;50.758;6.106;2023-05-12T03:36:45;98945.09;;;11.85;100.00
73151;BME280;61354;50.758;6.106;2023-05-12T03:39:11;98941.88;;;11.83;100.00
73151;BME280;61354;50.758;6.106;2023-05-12T03:41:37;98942.78;;;11.67;100.00
73151;BME280;61354;50.758;6.106;2023-05-12T03:44:03;98944.03;;;11.70;100.00
73151;BME280;61354;50.758;6.106;2023-05-12T03:46:33;98957.31;;;11.80;100.00
73151;BME280;61354;50.758;6.106;2023-05-12T03:48:59;98953.88;;;11.87;100.00
73151;BME280;61354;50.758;6.106;2023-05-12T03:51:24;98950.25;;;11.63;100.00
73151;BME280;61354;50.758;6.106;2023-05-12T03:53:50;98952.78;;;11.72;100.00
73151;BME280;61354;50.758;6.106;2023-05-12T03:56:16;98959.47;;;11.67;100.00
73151;BME280;61354;50.758;6.106;2023-05-12T03:58:42;98953.41;;;11.62;100.00
73151;BME280;61354;50.758;6.106;2023-05-12T04:01:08;98955.94;;;11.70;100.00
73151;BME280;61354;50.758;6.106;2023-05-12T04:03:34;98960.09;;;11.80;100.00
73151;BME280;61354;50.758;6.106;2023-05-12T04:06:00;98957.97;;;11.51;100.00
73151;BME280;61354;50.758;6.106;2023-05-12T04:08:27;98955.25;;;11.77;100.00
73151;BME280;61354;50.758;6.106;2023-05-12T04:10:56;98964.84;;;11.80;100.00
73151;BME280;61354;50.758;6.106;2023-05-12T04:13:27;98963.25;;;11.79;100.00
73151;BME280;61354;50.758;6.106;2023-05-12T04:15:57;98954.34;;;11.69;100.00
73151;BME280;61354;50.758;6.106;2023-05-12T04:18:23;98955.63;;;11.76;100.00
73151;BME280;61354;50.758;6.106;2023-05-12T04:20:49;98969.41;;;11.68;100.00
73151;BME280;61354;50.758;6.106;2023-05-12T04:23:15;98954.63;;;11.84;100.00
73151;BME280;61354;50.758;6.106;2023-05-12T04:25:41;98957.75;;;11.82;100.00
73151;BME280;61354;50.758;6.106;2023-05-12T04:28:08;98960.25;;;11.87;100.00
73151;BME280;61354;50.758;6.106;2023-05-12T04:30:34;98961.03;;;11.88;100.00
73151;BME280;61354;50.758;6.106;2023-05-12T04:33:00;98958.59;;;11.83;100.00
73151;BME280;61354;50.758;6.106;2023-05-12T04:35:26;98966.34;;;11.74;100.00
73151;BME280;61354;50.758;6.106;2023-05-12T04:37:52;98969.22;;;11.81;100.00
73151;BME280;61354;50.758;6.106;2023-05-12T04:40:18;98972.63;;;11.70;100.00
73151;BME280;61354;50.758;6.106;2023-05-12T04:42:43;98972.72;;;11.74;100.00
73151;BME280;61354;50.758;6.106;2023-05-12T04:45:09;98972.75;;;11.78;100.00
73151;BME280;61354;50.758;6.106;2023-05-12T04:47:35;98975.28;;;11.83;100.00
73151;BME280;61354;50.758;6.106;2023-05-12T04:50:01;98980.03;;;11.63;100.00
73151;BME280;61354;50.758;6.106;2023-05-12T04:52:27;98986.97;;;11.73;100.00
73151;BME280;61354;50.758;6.106;2023-05-12T04:54:52;98973.75;;;11.66;100.00
73151;BME280;61354;50.758;6.106;2023-05-12T04:57:18;98994.97;;;11.74;100.00
73151;BME280;61354;50.758;6.106;2023-05-12T04:59:43;98987.84;;;11.77;100.00
73151;BME280;61354;50.758;6.106;2023-05-12T05:02:10;98993.28;;;11.69;100.00
73151;BME280;61354;50.758;6.106;2023-05-12T05:04:36;98996.34;;;11.64;100.00
73151;BME280;61354;50.758;6.106;2023-05-12T05:07:02;98997.06;;;11.81;100.00
73151;BME280;61354;50.758;6.106;2023-05-12T05:09:28;98998.22;;;11.80;100.00
73151;BME280;61354;50.758;6.106;2023-05-12T05:11:53;99002.94;;;11.76;100.00
73151;BME280;61354;50.758;6.106;2023-05-12T05:14:19;99007.81;;;11.82;100.00
73151;BME280;61354;50.758;6.106;2023-05-12T05:16:44;99009.09;;;11.85;100.00
73151;BME280;61354;50.758;6.106;2023-05-12T05:19:11;99012.72;;;11.89;100.00
73151;BME280;61354;50.758;6.106;2023-05-12T05:21:37;99019.91;;;11.90;100.00
73151;BME280;61354;50.758;6.106;2023-05-12T05:24:03;99023.84;;;11.89;100.00
73151;BME280;61354;50.758;6.106;2023-05-12T05:26:29;99023.28;;;11.80;100.00
73151;BME280;61354;50.758;6.106;2023-05-12T05:28:55;99018.81;;;11.75;100.00
73151;BME280;61354;50.758;6.106;2023-05-12T05:31:21;99017.88;;;11.87;100.00
73151;BME280;61354;50.758;6.106;2023-05-12T05:33:47;99010.25;;;11.84;100.00
73151;BME280;61354;50.758;6.106;2023-05-12T05:36:13;99017.25;;;11.78;100.00
73151;BME280;61354;50.758;6.106;2023-05-12T05:38:42;99013.31;;;11.79;100.00
73151;BME280;61354;50.758;6.106;2023-05-12T05:41:07;99014.47;;;11.78;100.00
73151;BME280;61354;50.758;6.106;2023-05-12T05:43:33;99008.34;;;11.88;100.00
73151;BME280;61354;50.758;6.106;2023-05-12T05:45:59;99017.00;;;11.83;100.00
73151;BME280;61354;50.758;6.106;2023-05-12T05:48:25;99015.81;;;11.84;100.00
73151;BME280;61354;50.758;6.106;2023-05-12T05:50:51;99025.59;;;11.78;100.00
73151;BME280;61354;50.758;6.106;2023-05-12T05:53:18;99025.34;;;11.83;100.00
73151;BME280;61354;50.758;6.106;2023-05-12T05:55:44;99022.19;;;11.84;100.00
73151;BME280;61354;50.758;6.106;2023-05-12T05:58:10;99022.09;;;11.81;100.00
73151;BME280;61354;50.758;6.106;2023-05-12T06:00:36;99026.34;;;11.94;100.00
73151;BME280;61354;50.758;6.106;2023-05-12T06:03:02;99028.84;;;11.99;100.00
73151;BME280;61354;50.758;6.106;2023-05-12T06:05:27;99035.88;;;11.93;100.00
73151;BME280;61354;50.758;6.106;2023-05-12T06:07:53;99034.63;;;11.90;100.00
73151;BME280;61354;50.758;6.106;2023-05-12T06:10:19;99034.75;;;11.98;100.00
73151;BME280;61354;50.758;6.106;2023-05-12T06:12:44;99043.16;;;12.01;100.00
73151;BME280;61354;50.758;6.106;2023-05-12T06:15:10;99044.34;;;12.00;100.00
73151;BME280;61354;50.758;6.106;2023-05-12T06:17:36;99051.50;;;12.01;100.00
73151;BME280;61354;50.758;6.106;2023-05-12T06:20:03;99051.81;;;11.96;100.00
73151;BME280;61354;50.758;6.106;2023-05-12T06:22:30;99048.00;;;12.04;100.00
73151;BME280;61354;50.758;6.106;2023-05-12T06:24:55;99049.28;;;12.10;100.00
73151;BME280;61354;50.758;6.106;2023-05-12T06:27:21;99050.47;;;12.09;100.00
73151;BME280;61354;50.758;6.106;2023-05-12T06:29:50;99051.28;;;12.10;100.00
73151;BME280;61354;50.758;6.106;2023-05-12T06:32:15;99058.22;;;12.19;100.00
73151;BME280;61354;50.758;6.106;2023-05-12T06:34:41;99060.88;;;12.12;100.00
73151;BME280;61354;50.758;6.106;2023-05-12T06:37:06;99058.41;;;12.07;100.00
73151;BME280;61354;50.758;6.106;2023-05-12T06:39:32;99059.50;;;12.26;100.00
73151;BME280;61354;50.758;6.106;2023-05-12T06:41:58;99061.91;;;12.27;100.00
73151;BME280;61354;50.758;6.106;2023-05-12T06:44:23;99062.75;;;12.28;100.00
73151;BME280;61354;50.758;6.106;2023-05-12T06:46:49;99056.97;;;12.17;100.00
73151;BME280;61354;50.758;6.106;2023-05-12T06:49:14;99054.88;;;12.33;100.00
73151;BME280;61354;50.758;6.106;2023-05-12T06:51:40;99064.94;;;12.18;100.00
73151;BME280;61354;50.758;6.106;2023-05-12T06:54:06;99070.09;;;12.16;100.00
73151;BME280;61354;50.758;6.106;2023-05-12T06:56:31;99061.88;;;12.24;100.00
73151;BME280;61354;50.758;6.106;2023-05-12T06:58:57;99073.22;;;12.15;100.00
73151;BME280;61354;50.758;6.106;2023-05-12T07:01:31;99071.00;;;12.01;100.00
73151;BME280;61354;50.758;6.106;2023-05-12T07:03:57;99064.22;;;12.22;100.00
73151;BME280;61354;50.758;6.106;2023-05-12T07:06:23;99067.53;;;12.31;100.00
73151;BME280;61354;50.758;6.106;2023-05-12T07:08:52;99071.28;;;12.15;100.00
73151;BME280;61354;50.758;6.106;2023-05-12T07:11:18;99065.94;;;12.30;100.00
73151;BME280;61354;50.758;6.106;2023-05-12T07:13:48;99076.16;;;12.22;100.00
73151;BME280;61354;50.758;6.106;2023-05-12T07:16:15;99075.97;;;12.34;100.00
73151;BME280;61354;50.758;6.106;2023-05-12T07:18:42;99072.56;;;12.44;100.00
73151;BME280;61354;50.758;6.106;2023-05-12T07:21:08;99073.84;;;12.51;100.00
73151;BME280;61354;50.758;6.106;2023-05-12T07:23:35;99075.91;;;12.54;100.00
73151;BME280;61354;50.758;6.106;2023-05-12T07:26:01;99076.16;;;12.45;100.00
73151;BME280;61354;50.758;6.106;2023-05-12T07:28:31;99076.72;;;12.54;100.00
73151;BME280;61354;50.758;6.106;2023-05-12T07:31:03;99077.38;;;12.71;100.00
73151;BME280;61354;50.758;6.106;2023-05-12T07:33:29;99070.69;;;12.75;100.00
73151;BME280;61354;50.758;6.106;2023-05-12T07:35:55;99073.53;;;12.79;100.00
73151;BME280;61354;50.758;6.106;2023-05-12T07:38:21;99070.47;;;12.61;100.00
73151;BME280;61354;50.758;6.106;2023-05-12T07:40:47;99076.06;;;12.64;100.00
73151;BME280;61354;50.758;6.106;2023-05-12T07:43:12;99070.75;;;12.79;100.00
73151;BME280;61354;50.758;6.106;2023-05-12T07:45:38;99079.88;;;13.06;100.00
73151;BME280;61354;50.758;6.106;2023-05-12T07:48:03;99072.19;;;12.96;100.00
73151;BME280;61354;50.758;6.106;2023-05-12T07:50:29;99071.44;;;12.99;100.00
73151;BME280;61354;50.758;6.106;2023-05-12T07:52:55;99050.56;;;12.89;100.00
73151;BME280;61354;50.758;6.106;2023-05-12T07:55:21;99047.97;;;13.00;100.00
73151;BME280;61354;50.758;6.106;2023-05-12T07:57:50;99049.56;;;13.01;100.00
73151;BME280;61354;50.758;6.106;2023-05-12T08:00:16;99044.16;;;13.11;100.00
73151;BME280;61354;50.758;6.106;2023-05-12T08:02:42;99045.75;;;13.12;100.00
73151;BME280;61354;50.758;6.106;2023-05-12T08:05:09;99050.06;;;13.06;100.00
73151;BME280;61354;50.758;6.106;2023-05-12T08:07:36;99043.94;;;12.97;100.00
73151;BME280;61354;50.758;6.106;2023-05-12T08:10:03;99058.63;;;12.94;100.00
73151;BME280;61354;50.758;6.106;2023-05-12T08:12:29;99057.44;;;12.95;100.00
73151;BME280;61354;50.758;6.106;2023-05-12T08:14:55;99057.66;;;12.83;100.00
73151;BME280;61354;50.758;6.106;2023-05-12T08:17:21;99050.22;;;12.90;100.00
73151;BME280;61354;50.758;6.106;2023-05-12T08:19:47;99060.66;;;12.97;100.00
73151;BME280;61354;50.758;6.106;2023-05-12T08:22:12;99057.88;;;12.97;100.00
73151;BME280;61354;50.758;6.106;2023-05-12T08:24:38;99066.66;;;12.99;100.00
73151;BME280;61354;50.758;6.106;2023-05-12T08:27:04;99064.34;;;13.05;100.00
73151;BME280;61354;50.758;6.106;2023-05-12T08:29:29;99068.72;;;13.06;100.00
73151;BME280;61354;50.758;6.106;2023-05-12T08:31:56;99062.66;;;13.23;100.00
73151;BME280;61354;50.758;6.106;2023-05-12T08:34:23;99063.88;;;13.26;100.00
73151;BME280;61354;50.758;6.106;2023-05-12T08:36:51;99072.00;;;13.38;100.00
73151;BME280;61354;50.758;6.106;2023-05-12T08:39:16;99070.00;;;13.38;100.00
73151;BME280;61354;50.758;6.106;2023-05-12T08:42:03;99067.63;;;13.37;100.00
73151;BME280;61354;50.758;6.106;2023-05-12T08:44:35;99081.22;;;13.42;100.00
73151;BME280;61354;50.758;6.106;2023-05-12T08:47:03;99082.81;;;13.43;100.00
73151;BME280;61354;50.758;6.106;2023-05-12T08:49:31;99083.03;;;13.57;100.00
73151;BME280;61354;50.758;6.106;2023-05-12T08:51:58;99083.28;;;13.79;100.00
73151;BME280;61354;50.758;6.106;2023-05-12T08:54:26;99080.94;;;13.84;100.00
73151;BME280;61354;50.758;6.106;2023-05-12T08:56:53;99077.09;;;13.96;100.00
73151;BME280;61354;50.758;6.106;2023-05-12T08:59:19;99083.25;;;14.12;100.00
73151;BME280;61354;50.758;6.106;2023-05-12T09:01:45;99086.44;;;14.11;100.00
73151;BME280;61354;50.758;6.106;2023-05-12T09:04:12;99086.47;;;14.14;100.00
73151;BME280;61354;50.758;6.106;2023-05-12T09:06:44;99090.88;;;14.15;100.00
73151;BME280;61354;50.758;6.106;2023-05-12T09:09:12;99091.06;;;14.37;100.00
73151;BME280;61354;50.758;6.106;2023-05-12T09:11:39;99088.97;;;14.64;100.00
73151;BME280;61354;50.758;6.106;2023-05-12T09:14:17;99087.38;;;14.66;100.00
73151;BME280;61354;50.758;6.106;2023-05-12T09:16:49;99096.19;;;14.72;100.00
73151;BME280;61354;50.758;6.106;2023-05-12T09:19:20;99082.25;;;14.76;100.00
73151;BME280;61354;50.758;6.106;2023-05-12T09:21:47;99090.59;;;14.72;100.00
73151;BME280;61354;50.758;6.106;2023-05-12T09:24:13;99088.22;;;14.71;100.00
73151;BME280;61354;50.758;6.106;2023-05-12T09:26:50;99093.88;;;14.78;100.00
73151;BME280;61354;50.758;6.106;2023-05-12T09:29:16;99100.94;;;14.64;100.00
73151;BME280;61354;50.758;6.106;2023-05-12T09:31:52;99105.63;;;14.53;100.00
73151;BME280;61354;50.758;6.106;2023-05-12T09:34:20;99110.38;;;14.49;100.00
73151;BME280;61354;50.758;6.106;2023-05-12T09:36:58;99106.47;;;14.57;100.00
73151;BME280;61354;50.758;6.106;2023-05-12T09:39:24;99111.31;;;14.64;100.00
73151;BME280;61354;50.758;6.106;2023-05-12T09:41:50;99104.97;;;14.71;100.00
73151;BME280;61354;50.758;6.106;2023-05-12T09:44:17;99109.84;;;14.77;100.00
73151;BME280;61354;50.758;6.106;2023-05-12T09:46:43;99110.66;;;14.81;100.00
73151;BME280;61354;50.758;6.106;2023-05-12T09:49:10;99109.28;;;15.12;100.00
73151;BME280;61354;50.758;6.106;2023-05-12T09:51:36;99117.00;;;15.30;100.00
73151;BME280;61354;50.758;6.106;2023-05-12T09:54:02;99118.97;;;15.26;100.00
73151;BME280;61354;50.758;6.106;2023-05-12T09:56:29;99119.72;;;15.15;100.00
73151;BME280;61354;50.758;6.106;2023-05-12T09:59:00;99106.94;;;15.18;100.00
73151;BME280;61354;50.758;6.106;2023-05-12T10:01:28;99124.84;;;15.06;99.17
73151;BME280;61354;50.758;6.106;2023-05-12T10:03:55;99125.28;;;15.15;99.60
73151;BME280;61354;50.758;6.106;2023-05-12T10:06:25;99123.69;;;15.14;100.00
73151;BME280;61354;50.758;6.106;2023-05-12T10:11:32;99128.19;;;15.30;97.65
73151;BME280;61354;50.758;6.106;2023-05-12T10:13:59;99134.59;;;15.30;98.49
73151;BME280;61354;50.758;6.106;2023-05-12T10:16:28;99139.78;;;15.32;96.72
73151;BME280;61354;50.758;6.106;2023-05-12T10:18:54;99133.06;;;15.40;97.06
73151;BME280;61354;50.758;6.106;2023-05-12T10:21:23;99139.63;;;15.65;97.16
73151;BME280;61354;50.758;6.106;2023-05-12T10:23:49;99138.84;;;15.76;96.17
73151;BME280;61354;50.758;6.106;2023-05-12T10:26:16;99139.25;;;15.74;97.89
73151;BME280;61354;50.758;6.106;2023-05-12T10:28:43;99139.88;;;15.46;96.45
73151;BME280;61354;50.758;6.106;2023-05-12T10:31:10;99144.50;;;15.21;96.62
73151;BME280;61354;50.758;6.106;2023-05-12T10:33:36;99140.41;;;15.07;97.25
73151;BME280;61354;50.758;6.106;2023-05-12T10:36:01;99147.41;;;15.38;98.72
73151;BME280;61354;50.758;6.106;2023-05-12T10:38:34;99139.03;;;15.42;93.96
73151;BME280;61354;50.758;6.106;2023-05-12T10:41:02;99142.47;;;15.80;97.85
73151;BME280;61354;50.758;6.106;2023-05-12T10:43:40;99140.09;;;15.82;94.55
73151;BME280;61354;50.758;6.106;2023-05-12T10:49:02;99146.84;;;15.74;93.07
73151;BME280;61354;50.758;6.106;2023-05-12T10:51:30;99148.88;;;15.77;94.54
73151;BME280;61354;50.758;6.106;2023-05-12T10:54:21;99145.03;;;16.10;91.79
73151;BME280;61354;50.758;6.106;2023-05-12T10:56:48;99137.06;;;16.23;89.87
73151;BME280;61354;50.758;6.106;2023-05-12T10:59:19;99136.31;;;16.47;90.73
73151;BME280;61354;50.758;6.106;2023-05-12T11:02:04;99141.13;;;16.47;90.88
73151;BME280;61354;50.758;6.106;2023-05-12T11:04:46;99141.41;;;16.09;88.73
73151;BME280;61354;50.758;6.106;2023-05-12T11:07:14;99140.59;;;16.05;88.64
73151;BME280;61354;50.758;6.106;2023-05-12T11:09:44;99141.00;;;16.07;91.70
73151;BME280;61354;50.758;6.106;2023-05-12T11:12:11;99145.03;;;16.10;89.71
73151;BME280;61354;50.758;6.106;2023-05-12T11:14:38;99141.88;;;16.26;89.34
73151;BME280;61354;50.758;6.106;2023-05-12T11:17:04;99149.13;;;16.66;91.10
73151;BME280;61354;50.758;6.106;2023-05-12T11:19:31;99144.34;;;16.70;87.32
73151;BME280;61354;50.758;6.106;2023-05-12T11:21:57;99137.97;;;17.09;89.81
73151;BME280;61354;50.758;6.106;2023-05-12T11:24:23;99143.59;;;17.05;86.27
73151;BME280;61354;50.758;6.106;2023-05-12T11:26:49;99147.59;;;16.76;87.21
73151;BME280;61354;50.758;6.106;2023-05-12T11:29:18;99164.38;;;16.69;85.02
73151;BME280;61354;50.758;6.106;2023-05-12T11:31:50;99154.34;;;16.57;85.51
73151;BME280;61354;50.758;6.106;2023-05-12T11:34:23;99157.97;;;16.64;85.96
73151;BME280;61354;50.758;6.106;2023-05-12T11:36:51;99153.94;;;16.62;83.07
73151;BME280;61354;50.758;6.106;2023-05-12T11:39:27;99151.63;;;16.96;85.48
73151;BME280;61354;50.758;6.106;2023-05-12T11:42:00;99153.59;;;17.35;81.85
73151;BME280;61354;50.758;6.106;2023-05-12T11:44:26;99156.38;;;17.21;79.47
73151;BME280;61354;50.758;6.106;2023-05-12T11:46:55;99154.78;;;17.16;81.37
73151;BME280;61354;50.758;6.106;2023-05-12T11:49:21;99150.78;;;17.21;79.95
73151;BME280;61354;50.758;6.106;2023-05-12T11:51:47;99149.13;;;17.52;79.79
73151;BME280;61354;50.758;6.106;2023-05-12T11:54:13;99150.72;;;17.56;77.95
73151;BME280;61354;50.758;6.106;2023-05-12T11:56:46;99157.97;;;17.47;77.31
73151;BME280;61354;50.758;6.106;2023-05-12T11:59:12;99154.78;;;17.34;76.55
73151;BME280;61354;50.758;6.106;2023-05-12T12:01:44;99163.59;;;17.32;76.83
73151;BME280;61354;50.758;6.106;2023-05-12T12:04:11;99166.41;;;17.00;75.61
73151;BME280;61354;50.758;6.106;2023-05-12T12:06:43;99168.44;;;16.89;76.96
73151;BME280;61354;50.758;6.106;2023-05-12T12:09:09;99166.81;;;16.81;78.35
73151;BME280;61354;50.758;6.106;2023-05-12T12:11:36;99172.84;;;16.76;77.98
73151;BME280;61354;50.758;6.106;2023-05-12T12:14:02;99179.63;;;16.82;77.32
73151;BME280;61354;50.758;6.106;2023-05-12T12:16:30;99177.97;;;16.70;75.38
73151;BME280;61354;50.758;6.106;2023-05-12T12:18:56;99179.66;;;16.89;77.79
73151;BME280;61354;50.758;6.106;2023-05-12T12:21:24;99182.06;;;17.01;76.57
73151;BME280;61354;50.758;6.106;2023-05-12T12:23:50;99176.41;;;16.83;75.14
73151;BME280;61354;50.758;6.106;2023-05-12T12:26:17;99181.66;;;16.92;75.07
73151;BME280;61354;50.758;6.106;2023-05-12T12:28:45;99185.69;;;17.05;75.81
73151;BME280;61354;50.758;6.106;2023-05-12T12:31:11;99182.84;;;17.23;76.34
73151;BME280;61354;50.758;6.106;2023-05-12T12:33:37;99179.63;;;17.25;74.86
73151;BME280;61354;50.758;6.106;2023-05-12T12:36:03;99194.09;;;17.20;74.19
73151;BME280;61354;50.758;6.106;2023-05-12T12:38:29;99188.09;;;17.21;73.28
73151;BME280;61354;50.758;6.106;2023-05-12T12:40:55;99199.69;;;17.27;73.60
73151;BME280;61354;50.758;6.106;2023-05-12T12:43:20;99196.09;;;17.23;74.03
73151;BME280;61354;50.758;6.106;2023-05-12T12:45:46;99196.47;;;17.25;72.29
73151;BME280;61354;50.758;6.106;2023-05-12T12:48:12;99199.69;;;17.12;70.47
73151;BME280;61354;50.758;6.106;2023-05-12T12:50:38;99209.31;;;17.04;70.55
73151;BME280;61354;50.758;6.106;2023-05-12T12:53:04;99202.50;;;17.02;71.30
73151;BME280;61354;50.758;6.106;2023-05-12T12:55:29;99208.94;;;17.09;66.95
73151;BME280;61354;50.758;6.106;2023-05-12T12:57:56;99220.94;;;17.06;68.48